sensor_id;sensor_type;location;lat;lon;timestamp;temperature;humidity
5086;DHT22;4715;51.660;7.082;2023-06-10T00:01:23;22.70;98.30
5086;DHT22;4715;51.660;7.082;2023-06-10T00:03:46;22.70;98.40
5086;DHT22;4715;51.660;7.082;2023-06-10T00:06:08;22.60;98.50
5086;DHT22;4715;51.660;7.082;2023-06-10T00:08:33;22.60;98.60
5086;DHT22;4715;51.660;7.082;2023-06-10T00:10:56;22.60;98.60
5086;DHT22;4715;51.660;7.082;2023-06-10T00:13:19;22.50;98.70
5086;DHT22;4715;51.660;7.082;2023-06-10T00:15:42;22.50;98.80
5086;DHT22;4715;51.660;7.082;2023-06-10T00:18:04;22.50;98.90
5086;DHT22;4715;51.660;7.082;2023-06-10T00:20:26;22.40;99.00
5086;DHT22;4715;51.660;7.082;2023-06-10T00:22:48;22.40;99.10
5086;DHT22;4715;51.660;7.082;2023-06-10T00:25:12;22.40;99.20
5086;DHT22;4715;51.660;7.082;2023-06-10T00:27:34;22.30;99.30
5086;DHT22;4715;51.660;7.082;2023-06-10T00:29:56;22.30;99.40
5086;DHT22;4715;51.660;7.082;2023-06-10T00:32:18;22.30;99.50
5086;DHT22;4715;51.660;7.082;2023-06-10T00:34:40;22.30;99.60
5086;DHT22;4715;51.660;7.082;2023-06-10T00:37:02;22.20;99.60
5086;DHT22;4715;51.660;7.082;2023-06-10T00:39:25;22.20;99.70
5086;DHT22;4715;51.660;7.082;2023-06-10T00:41:48;22.20;99.80
5086;DHT22;4715;51.660;7.082;2023-06-10T00:44:10;22.10;99.90
5086;DHT22;4715;51.660;7.082;2023-06-10T00:46:34;22.10;99.90
5086;DHT22;4715;51.660;7.082;2023-06-10T00:48:57;22.10;99.90
5086;DHT22;4715;51.660;7.082;2023-06-10T00:51:21;22.10;99.90
5086;DHT22;4715;51.660;7.082;2023-06-10T00:53:44;22.10;99.90
5086;DHT22;4715;51.660;7.082;2023-06-10T00:56:07;22.10;99.90
5086;DHT22;4715;51.660;7.082;2023-06-10T00:58:33;22.10;99.90
5086;DHT22;4715;51.660;7.082;2023-06-10T01:00:55;22.10;99.90
5086;DHT22;4715;51.660;7.082;2023-06-10T01:03:22;22.00;99.90
5086;DHT22;4715;51.660;7.082;2023-06-10T01:05:47;22.00;99.90
5086;DHT22;4715;51.660;7.082;2023-06-10T01:08:23;22.00;99.90
5086;DHT22;4715;51.660;7.082;2023-06-10T01:10:54;21.90;99.90
5086;DHT22;4715;51.660;7.082;2023-06-10T01:13:18;21.90;99.90
5086;DHT22;4715;51.660;7.082;2023-06-10T01:15:46;21.90;99.90
5086;DHT22;4715;51.660;7.082;2023-06-10T01:18:11;21.80;99.90
5086;DHT22;4715;51.660;7.082;2023-06-10T01:20:36;21.80;99.90
5086;DHT22;4715;51.660;7.082;2023-06-10T01:23:02;21.80;99.90
5086;DHT22;4715;51.660;7.082;2023-06-10T01:25:26;21.70;99.90
5086;DHT22;4715;51.660;7.082;2023-06-10T01:27:50;21.70;99.90
5086;DHT22;4715;51.660;7.082;2023-06-10T01:30:15;21.70;99.90
5086;DHT22;4715;51.660;7.082;2023-06-10T01:32:43;21.60;99.90
5086;DHT22;4715;51.660;7.082;2023-06-10T01:35:06;21.60;99.90
5086;DHT22;4715;51.660;7.082;2023-06-10T01:37:31;21.50;99.90
5086;DHT22;4715;51.660;7.082;2023-06-10T01:39:58;21.50;99.90
5086;DHT22;4715;51.660;7.082;2023-06-10T01:42:20;21.50;99.90
5086;DHT22;4715;51.660;7.082;2023-06-10T01:44:49;21.40;99.90
5086;DHT22;4715;51.660;7.082;2023-06-10T01:47:10;21.40;99.90
5086;DHT22;4715;51.660;7.082;2023-06-10T01:49:36;21.30;99.90
5086;DHT22;4715;51.660;7.082;2023-06-10T01:52:01;21.30;99.90
5086;DHT22;4715;51.660;7.082;2023-06-10T01:54:23;21.30;99.90
5086;DHT22;4715;51.660;7.082;2023-06-10T01:56:46;21.20;99.90
5086;DHT22;4715;51.660;7.082;2023-06-10T01:59:09;21.20;99.90
5086;DHT22;4715;51.660;7.082;2023-06-10T02:01:31;21.20;99.90
5086;DHT22;4715;51.660;7.082;2023-06-10T02:03:54;21.20;99.90
5086;DHT22;4715;51.660;7.082;2023-06-10T02:06:16;21.20;99.90
5086;DHT22;4715;51.660;7.082;2023-06-10T02:08:38;21.10;99.90
5086;DHT22;4715;51.660;7.082;2023-06-10T02:10:59;21.10;99.90
5086;DHT22;4715;51.660;7.082;2023-06-10T02:13:24;21.10;99.90
5086;DHT22;4715;51.660;7.082;2023-06-10T02:15:46;21.00;99.90
5086;DHT22;4715;51.660;7.082;2023-06-10T02:18:08;21.00;99.90
5086;DHT22;4715;51.660;7.082;2023-06-10T02:20:33;21.00;99.90
5086;DHT22;4715;51.660;7.082;2023-06-10T02:22:55;21.00;99.90
5086;DHT22;4715;51.660;7.082;2023-06-10T02:25:17;20.90;99.90
5086;DHT22;4715;51.660;7.082;2023-06-10T02:27:39;20.90;99.90
5086;DHT22;4715;51.660;7.082;2023-06-10T02:30:03;20.90;99.90
5086;DHT22;4715;51.660;7.082;2023-06-10T02:32:25;20.90;99.90
5086;DHT22;4715;51.660;7.082;2023-06-10T02:34:50;20.80;99.90
5086;DHT22;4715;51.660;7.082;2023-06-10T02:37:13;20.80;99.90
5086;DHT22;4715;51.660;7.082;2023-06-10T02:39:35;20.80;99.90
5086;DHT22;4715;51.660;7.082;2023-06-10T02:41:57;20.70;99.90
5086;DHT22;4715;51.660;7.082;2023-06-10T02:44:19;20.70;99.90
5086;DHT22;4715;51.660;7.082;2023-06-10T02:46:45;20.70;99.90
5086;DHT22;4715;51.660;7.082;2023-06-10T02:49:07;20.70;99.90
5086;DHT22;4715;51.660;7.082;2023-06-10T02:51:30;20.70;99.90
5086;DHT22;4715;51.660;7.082;2023-06-10T02:53:54;20.60;99.90
5086;DHT22;4715;51.660;7.082;2023-06-10T02:56:16;20.60;99.90
5086;DHT22;4715;51.660;7.082;2023-06-10T02:58:41;20.60;99.90
5086;DHT22;4715;51.660;7.082;2023-06-10T03:01:04;20.50;99.90
5086;DHT22;4715;51.660;7.082;2023-06-10T03:03:33;20.50;99.90
5086;DHT22;4715;51.660;7.082;2023-06-10T03:05:57;20.50;99.90
5086;DHT22;4715;51.660;7.082;2023-06-10T03:08:20;20.50;99.90
5086;DHT22;4715;51.660;7.082;2023-06-10T03:10:42;20.40;99.90
5086;DHT22;4715;51.660;7.082;2023-06-10T03:13:07;20.40;99.90
5086;DHT22;4715;51.660;7.082;2023-06-10T03:15:32;20.40;99.90
5086;DHT22;4715;51.660;7.082;2023-06-10T03:17:55;20.30;99.90
5086;DHT22;4715;51.660;7.082;2023-06-10T03:20:18;20.30;99.90
5086;DHT22;4715;51.660;7.082;2023-06-10T03:22:42;20.20;99.90
5086;DHT22;4715;51.660;7.082;2023-06-10T03:25:08;20.20;99.90
5086;DHT22;4715;51.660;7.082;2023-06-10T03:27:36;20.20;99.90
5086;DHT22;4715;51.660;7.082;2023-06-10T03:30:02;20.20;99.90
5086;DHT22;4715;51.660;7.082;2023-06-10T03:32:25;20.10;99.90
5086;DHT22;4715;51.660;7.082;2023-06-10T03:34:47;20.10;99.90
5086;DHT22;4715;51.660;7.082;2023-06-10T03:37:15;20.10;99.90
5086;DHT22;4715;51.660;7.082;2023-06-10T03:39:39;20.10;99.90
5086;DHT22;4715;51.660;7.082;2023-06-10T03:42:02;20.10;99.90
5086;DHT22;4715;51.660;7.082;2023-06-10T03:44:24;20.10;99.90
5086;DHT22;4715;51.660;7.082;2023-06-10T03:46:47;20.00;99.90
5086;DHT22;4715;51.660;7.082;2023-06-10T03:49:10;20.00;99.90
5086;DHT22;4715;51.660;7.082;2023-06-10T03:51:35;20.00;99.90
5086;DHT22;4715;51.660;7.082;2023-06-10T03:53:58;20.00;99.90
5086;DHT22;4715;51.660;7.082;2023-06-10T03:56:20;20.00;99.90
5086;DHT22;4715;51.660;7.082;2023-06-10T03:58:43;19.90;99.90
5086;DHT22;4715;51.660;7.082;2023-06-10T04:01:05;20.00;99.90
5086;DHT22;4715;51.660;7.082;2023-06-10T04:03:27;19.90;99.90
5086;DHT22;4715;51.660;7.082;2023-06-10T04:05:49;19.90;99.90
5086;DHT22;4715;51.660;7.082;2023-06-10T04:08:11;20.00;99.90
5086;DHT22;4715;51.660;7.082;2023-06-10T04:10:35;20.00;99.90
5086;DHT22;4715;51.660;7.082;2023-06-10T04:12:59;20.00;99.90
5086;DHT22;4715;51.660;7.082;2023-06-10T04:15:22;20.00;99.90
5086;DHT22;4715;51.660;7.082;2023-06-10T04:17:44;20.00;99.90
5086;DHT22;4715;51.660;7.082;2023-06-10T04:20:08;20.00;99.90
5086;DHT22;4715;51.660;7.082;2023-06-10T04:22:32;20.00;99.90
5086;DHT22;4715;51.660;7.082;2023-06-10T04:24:54;20.00;99.90
5086;DHT22;4715;51.660;7.082;2023-06-10T04:27:18;20.10;99.90
5086;DHT22;4715;51.660;7.082;2023-06-10T04:29:43;20.10;99.90
5086;DHT22;4715;51.660;7.082;2023-06-10T04:32:06;20.10;99.90
5086;DHT22;4715;51.660;7.082;2023-06-10T04:34:28;20.10;99.90
5086;DHT22;4715;51.660;7.082;2023-06-10T04:36:54;20.10;99.90
5086;DHT22;4715;51.660;7.082;2023-06-10T04:39:16;20.10;99.90
5086;DHT22;4715;51.660;7.082;2023-06-10T04:41:39;20.20;99.90
5086;DHT22;4715;51.660;7.082;2023-06-10T04:44:02;20.20;99.90
5086;DHT22;4715;51.660;7.082;2023-06-10T04:46:24;20.20;99.90
5086;DHT22;4715;51.660;7.082;2023-06-10T04:48:46;20.30;99.90
5086;DHT22;4715;51.660;7.082;2023-06-10T04:51:09;20.40;99.90
5086;DHT22;4715;51.660;7.082;2023-06-10T04:53:32;20.40;99.90
5086;DHT22;4715;51.660;7.082;2023-06-10T04:55:54;20.40;99.90
5086;DHT22;4715;51.660;7.082;2023-06-10T04:58:17;20.40;99.90
5086;DHT22;4715;51.660;7.082;2023-06-10T05:00:43;20.50;99.90
5086;DHT22;4715;51.660;7.082;2023-06-10T05:05:45;20.60;99.90
5086;DHT22;4715;51.660;7.082;2023-06-10T05:08:08;20.60;99.90
5086;DHT22;4715;51.660;7.082;2023-06-10T05:10:31;20.70;99.90
5086;DHT22;4715;51.660;7.082;2023-06-10T05:12:56;20.70;99.90
5086;DHT22;4715;51.660;7.082;2023-06-10T05:15:17;20.70;99.90
5086;DHT22;4715;51.660;7.082;2023-06-10T05:17:41;20.80;99.90
5086;DHT22;4715;51.660;7.082;2023-06-10T05:20:05;20.80;99.90
5086;DHT22;4715;51.660;7.082;2023-06-10T05:22:26;20.90;99.90
5086;DHT22;4715;51.660;7.082;2023-06-10T05:24:48;20.90;99.90
5086;DHT22;4715;51.660;7.082;2023-06-10T05:27:11;20.90;99.90
5086;DHT22;4715;51.660;7.082;2023-06-10T05:29:33;21.00;99.90
5086;DHT22;4715;51.660;7.082;2023-06-10T05:31:55;21.00;99.90
5086;DHT22;4715;51.660;7.082;2023-06-10T05:34:19;21.10;99.90
5086;DHT22;4715;51.660;7.082;2023-06-10T05:36:41;21.10;99.90
5086;DHT22;4715;51.660;7.082;2023-06-10T05:39:03;21.10;99.90
5086;DHT22;4715;51.660;7.082;2023-06-10T05:41:24;21.10;99.90
5086;DHT22;4715;51.660;7.082;2023-06-10T05:43:46;21.10;99.90
5086;DHT22;4715;51.660;7.082;2023-06-10T05:46:08;21.20;99.90
5086;DHT22;4715;51.660;7.082;2023-06-10T05:48:30;21.20;99.90
5086;DHT22;4715;51.660;7.082;2023-06-10T05:50:53;21.30;99.90
5086;DHT22;4715;51.660;7.082;2023-06-10T05:53:15;21.40;99.90
5086;DHT22;4715;51.660;7.082;2023-06-10T05:55:37;21.40;99.90
5086;DHT22;4715;51.660;7.082;2023-06-10T05:57:59;21.50;99.90
5086;DHT22;4715;51.660;7.082;2023-06-10T06:00:21;21.50;99.90
5086;DHT22;4715;51.660;7.082;2023-06-10T06:02:43;21.60;99.90
5086;DHT22;4715;51.660;7.082;2023-06-10T06:05:06;21.60;99.90
5086;DHT22;4715;51.660;7.082;2023-06-10T06:07:29;21.70;99.90
5086;DHT22;4715;51.660;7.082;2023-06-10T06:09:51;21.70;99.90
5086;DHT22;4715;51.660;7.082;2023-06-10T06:12:13;21.80;99.90
5086;DHT22;4715;51.660;7.082;2023-06-10T06:14:37;21.70;99.90
5086;DHT22;4715;51.660;7.082;2023-06-10T06:16:59;21.80;99.90
5086;DHT22;4715;51.660;7.082;2023-06-10T06:19:21;21.90;99.90
5086;DHT22;4715;51.660;7.082;2023-06-10T06:21:43;21.90;99.90
5086;DHT22;4715;51.660;7.082;2023-06-10T06:24:07;21.90;99.90
5086;DHT22;4715;51.660;7.082;2023-06-10T06:26:28;22.00;99.90
5086;DHT22;4715;51.660;7.082;2023-06-10T06:28:50;22.10;99.90
5086;DHT22;4715;51.660;7.082;2023-06-10T06:31:12;22.20;99.90
5086;DHT22;4715;51.660;7.082;2023-06-10T06:33:34;22.20;99.90
5086;DHT22;4715;51.660;7.082;2023-06-10T06:35:56;22.20;99.90
5086;DHT22;4715;51.660;7.082;2023-06-10T06:38:18;22.30;99.90
5086;DHT22;4715;51.660;7.082;2023-06-10T06:40:42;22.40;99.90
5086;DHT22;4715;51.660;7.082;2023-06-10T06:43:04;22.40;99.90
5086;DHT22;4715;51.660;7.082;2023-06-10T06:45:26;22.50;99.90
5086;DHT22;4715;51.660;7.082;2023-06-10T06:47:48;22.50;99.90
5086;DHT22;4715;51.660;7.082;2023-06-10T06:50:10;22.60;99.90
5086;DHT22;4715;51.660;7.082;2023-06-10T06:52:32;22.70;99.90
5086;DHT22;4715;51.660;7.082;2023-06-10T06:54:53;22.70;99.90
5086;DHT22;4715;51.660;7.082;2023-06-10T06:57:17;22.80;99.90
5086;DHT22;4715;51.660;7.082;2023-06-10T06:59:39;22.90;99.90
5086;DHT22;4715;51.660;7.082;2023-06-10T07:02:03;23.00;99.90
5086;DHT22;4715;51.660;7.082;2023-06-10T07:04:25;23.00;99.90
5086;DHT22;4715;51.660;7.082;2023-06-10T07:06:46;23.10;99.90
5086;DHT22;4715;51.660;7.082;2023-06-10T07:09:10;23.20;99.90
5086;DHT22;4715;51.660;7.082;2023-06-10T07:11:32;23.30;99.90
5086;DHT22;4715;51.660;7.082;2023-06-10T07:13:55;23.40;99.90
5086;DHT22;4715;51.660;7.082;2023-06-10T07:16:17;23.50;99.90
5086;DHT22;4715;51.660;7.082;2023-06-10T07:18:41;23.50;99.90
5086;DHT22;4715;51.660;7.082;2023-06-10T07:21:03;23.60;99.90
5086;DHT22;4715;51.660;7.082;2023-06-10T07:23:25;23.70;99.90
5086;DHT22;4715;51.660;7.082;2023-06-10T07:25:47;23.80;99.90
5086;DHT22;4715;51.660;7.082;2023-06-10T07:28:08;23.90;99.90
5086;DHT22;4715;51.660;7.082;2023-06-10T07:30:32;23.90;99.90
5086;DHT22;4715;51.660;7.082;2023-06-10T07:32:53;24.00;99.90
5086;DHT22;4715;51.660;7.082;2023-06-10T07:35:16;24.10;99.90
5086;DHT22;4715;51.660;7.082;2023-06-10T07:37:38;24.20;99.90
5086;DHT22;4715;51.660;7.082;2023-06-10T07:40:00;24.30;99.90
5086;DHT22;4715;51.660;7.082;2023-06-10T07:42:22;24.40;99.90
5086;DHT22;4715;51.660;7.082;2023-06-10T07:44:43;24.50;99.90
5086;DHT22;4715;51.660;7.082;2023-06-10T07:47:07;24.60;99.90
5086;DHT22;4715;51.660;7.082;2023-06-10T07:49:29;24.70;99.90
5086;DHT22;4715;51.660;7.082;2023-06-10T07:51:53;24.80;99.90
5086;DHT22;4715;51.660;7.082;2023-06-10T07:54:18;24.80;99.90
5086;DHT22;4715;51.660;7.082;2023-06-10T07:56:40;24.90;99.90
5086;DHT22;4715;51.660;7.082;2023-06-10T07:59:01;25.00;99.90
5086;DHT22;4715;51.660;7.082;2023-06-10T08:01:23;25.10;99.90
5086;DHT22;4715;51.660;7.082;2023-06-10T08:03:47;25.20;99.90
5086;DHT22;4715;51.660;7.082;2023-06-10T08:06:09;25.30;99.90
5086;DHT22;4715;51.660;7.082;2023-06-10T08:08:32;25.40;99.90
5086;DHT22;4715;51.660;7.082;2023-06-10T08:10:55;25.50;99.90
5086;DHT22;4715;51.660;7.082;2023-06-10T08:13:17;25.60;99.90
5086;DHT22;4715;51.660;7.082;2023-06-10T08:15:38;25.70;99.90
5086;DHT22;4715;51.660;7.082;2023-06-10T08:18:02;25.90;99.90
5086;DHT22;4715;51.660;7.082;2023-06-10T08:20:25;25.90;99.90
5086;DHT22;4715;51.660;7.082;2023-06-10T08:22:47;26.00;99.90
5086;DHT22;4715;51.660;7.082;2023-06-10T08:25:09;26.10;99.90
5086;DHT22;4715;51.660;7.082;2023-06-10T08:27:31;26.20;99.90
5086;DHT22;4715;51.660;7.082;2023-06-10T08:29:53;26.30;99.90
5086;DHT22;4715;51.660;7.082;2023-06-10T08:32:14;26.40;99.90
5086;DHT22;4715;51.660;7.082;2023-06-10T08:34:36;26.50;99.90
5086;DHT22;4715;51.660;7.082;2023-06-10T08:37:01;26.60;99.90
5086;DHT22;4715;51.660;7.082;2023-06-10T08:39:23;26.60;99.90
5086;DHT22;4715;51.660;7.082;2023-06-10T08:41:56;26.70;99.70
5086;DHT22;4715;51.660;7.082;2023-06-10T08:44:27;26.90;99.60
5086;DHT22;4715;51.660;7.082;2023-06-10T08:46:50;27.00;99.60
5086;DHT22;4715;51.660;7.082;2023-06-10T08:49:18;27.10;99.50
5086;DHT22;4715;51.660;7.082;2023-06-10T08:51:42;27.30;99.50
5086;DHT22;4715;51.660;7.082;2023-06-10T08:54:11;27.40;99.40
5086;DHT22;4715;51.660;7.082;2023-06-10T08:56:40;27.50;99.20
5086;DHT22;4715;51.660;7.082;2023-06-10T08:59:03;27.60;99.10
5086;DHT22;4715;51.660;7.082;2023-06-10T09:01:26;27.70;99.00
5086;DHT22;4715;51.660;7.082;2023-06-10T09:03:49;27.80;98.80
5086;DHT22;4715;51.660;7.082;2023-06-10T09:06:11;27.80;98.80
5086;DHT22;4715;51.660;7.082;2023-06-10T09:08:34;27.90;98.60
5086;DHT22;4715;51.660;7.082;2023-06-10T09:10:58;28.00;98.40
5086;DHT22;4715;51.660;7.082;2023-06-10T09:13:20;28.10;98.30
5086;DHT22;4715;51.660;7.082;2023-06-10T09:15:42;28.10;98.10
5086;DHT22;4715;51.660;7.082;2023-06-10T09:18:05;28.30;98.00
5086;DHT22;4715;51.660;7.082;2023-06-10T09:20:27;28.30;97.80
5086;DHT22;4715;51.660;7.082;2023-06-10T09:22:49;28.40;97.80
5086;DHT22;4715;51.660;7.082;2023-06-10T09:25:12;28.50;97.70
5086;DHT22;4715;51.660;7.082;2023-06-10T09:27:44;28.60;97.60
5086;DHT22;4715;51.660;7.082;2023-06-10T09:30:07;28.70;97.40
5086;DHT22;4715;51.660;7.082;2023-06-10T09:32:30;28.80;97.40
5086;DHT22;4715;51.660;7.082;2023-06-10T09:34:52;28.90;97.20
5086;DHT22;4715;51.660;7.082;2023-06-10T09:37:20;28.90;97.00
5086;DHT22;4715;51.660;7.082;2023-06-10T09:39:45;29.00;96.70
5086;DHT22;4715;51.660;7.082;2023-06-10T09:42:21;29.10;96.60
5086;DHT22;4715;51.660;7.082;2023-06-10T09:44:51;29.20;96.50
5086;DHT22;4715;51.660;7.082;2023-06-10T09:47:19;29.30;96.40
5086;DHT22;4715;51.660;7.082;2023-06-10T09:49:41;29.40;96.10
5086;DHT22;4715;51.660;7.082;2023-06-10T09:52:05;29.50;96.00
5086;DHT22;4715;51.660;7.082;2023-06-10T09:54:31;29.50;95.80
5086;DHT22;4715;51.660;7.082;2023-06-10T09:56:53;29.60;95.70
5086;DHT22;4715;51.660;7.082;2023-06-10T09:59:28;29.60;95.70
5086;DHT22;4715;51.660;7.082;2023-06-10T10:01:56;29.70;95.20
5086;DHT22;4715;51.660;7.082;2023-06-10T10:04:23;29.80;95.00
5086;DHT22;4715;51.660;7.082;2023-06-10T10:06:45;29.80;94.80
5086;DHT22;4715;51.660;7.082;2023-06-10T10:09:07;29.80;94.70
5086;DHT22;4715;51.660;7.082;2023-06-10T10:11:30;29.90;94.70
5086;DHT22;4715;51.660;7.082;2023-06-10T10:13:53;30.00;94.50
5086;DHT22;4715;51.660;7.082;2023-06-10T10:16:17;30.10;94.30
5086;DHT22;4715;51.660;7.082;2023-06-10T10:18:43;30.10;94.10
5086;DHT22;4715;51.660;7.082;2023-06-10T10:21:11;30.20;94.00
5086;DHT22;4715;51.660;7.082;2023-06-10T10:23:39;30.20;93.70
5086;DHT22;4715;51.660;7.082;2023-06-10T10:26:04;30.30;93.60
5086;DHT22;4715;51.660;7.082;2023-06-10T10:28:41;30.30;93.40
5086;DHT22;4715;51.660;7.082;2023-06-10T10:31:08;30.40;93.30
5086;DHT22;4715;51.660;7.082;2023-06-10T10:33:39;30.40;93.20
5086;DHT22;4715;51.660;7.082;2023-06-10T10:36:03;30.50;93.20
5086;DHT22;4715;51.660;7.082;2023-06-10T10:38:28;30.50;93.10
5086;DHT22;4715;51.660;7.082;2023-06-10T10:40:51;30.60;93.00
5086;DHT22;4715;51.660;7.082;2023-06-10T10:43:13;30.70;92.70
5086;DHT22;4715;51.660;7.082;2023-06-10T10:45:35;30.80;92.40
5086;DHT22;4715;51.660;7.082;2023-06-10T10:47:57;30.80;92.30
5086;DHT22;4715;51.660;7.082;2023-06-10T10:50:20;30.90;92.20
5086;DHT22;4715;51.660;7.082;2023-06-10T10:52:54;31.00;92.50
5086;DHT22;4715;51.660;7.082;2023-06-10T10:55:16;31.00;92.10
5086;DHT22;4715;51.660;7.082;2023-06-10T10:57:40;31.10;92.00
5086;DHT22;4715;51.660;7.082;2023-06-10T11:00:03;31.30;91.90
5086;DHT22;4715;51.660;7.082;2023-06-10T11:02:36;31.30;91.60
5086;DHT22;4715;51.660;7.082;2023-06-10T11:05:00;31.40;91.50
5086;DHT22;4715;51.660;7.082;2023-06-10T11:07:24;31.40;91.30
5086;DHT22;4715;51.660;7.082;2023-06-10T11:10:01;31.50;91.10
5086;DHT22;4715;51.660;7.082;2023-06-10T11:12:23;31.60;91.00
5086;DHT22;4715;51.660;7.082;2023-06-10T11:14:54;31.60;90.60
5086;DHT22;4715;51.660;7.082;2023-06-10T11:17:18;31.60;90.40
5086;DHT22;4715;51.660;7.082;2023-06-10T11:19:44;31.60;90.30
5086;DHT22;4715;51.660;7.082;2023-06-10T11:22:07;31.60;90.40
5086;DHT22;4715;51.660;7.082;2023-06-10T11:24:30;31.60;90.30
5086;DHT22;4715;51.660;7.082;2023-06-10T11:26:53;31.80;90.30
5086;DHT22;4715;51.660;7.082;2023-06-10T11:29:20;31.80;90.10
5086;DHT22;4715;51.660;7.082;2023-06-10T11:31:44;31.90;89.80
5086;DHT22;4715;51.660;7.082;2023-06-10T11:34:07;31.80;89.60
5086;DHT22;4715;51.660;7.082;2023-06-10T11:36:32;31.90;89.70
5086;DHT22;4715;51.660;7.082;2023-06-10T11:38:58;32.00;89.60
5086;DHT22;4715;51.660;7.082;2023-06-10T11:41:20;32.00;88.80
5086;DHT22;4715;51.660;7.082;2023-06-10T11:43:44;32.00;88.60
5086;DHT22;4715;51.660;7.082;2023-06-10T11:46:07;32.10;88.70
5086;DHT22;4715;51.660;7.082;2023-06-10T11:48:29;32.10;88.20
5086;DHT22;4715;51.660;7.082;2023-06-10T11:50:52;32.10;88.00
5086;DHT22;4715;51.660;7.082;2023-06-10T11:53:14;32.00;88.00
5086;DHT22;4715;51.660;7.082;2023-06-10T11:55:43;32.10;87.90
5086;DHT22;4715;51.660;7.082;2023-06-10T11:58:12;32.10;87.60
5086;DHT22;4715;51.660;7.082;2023-06-10T12:00:44;32.10;87.50
5086;DHT22;4715;51.660;7.082;2023-06-10T12:03:06;32.10;87.20
5086;DHT22;4715;51.660;7.082;2023-06-10T12:05:28;32.10;86.70
5086;DHT22;4715;51.660;7.082;2023-06-10T12:08:05;32.10;86.70
5086;DHT22;4715;51.660;7.082;2023-06-10T12:10:27;32.20;86.60
5086;DHT22;4715;51.660;7.082;2023-06-10T12:12:49;32.20;85.70
5086;DHT22;4715;51.660;7.082;2023-06-10T12:15:11;32.20;85.50
5086;DHT22;4715;51.660;7.082;2023-06-10T12:17:50;32.20;85.40
5086;DHT22;4715;51.660;7.082;2023-06-10T12:20:26;32.20;85.30
5086;DHT22;4715;51.660;7.082;2023-06-10T12:22:50;32.30;85.30
5086;DHT22;4715;51.660;7.082;2023-06-10T12:25:13;32.30;85.90
5086;DHT22;4715;51.660;7.082;2023-06-10T12:27:35;32.30;84.90
5086;DHT22;4715;51.660;7.082;2023-06-10T12:29:58;32.30;84.60
5086;DHT22;4715;51.660;7.082;2023-06-10T12:32:35;32.40;84.80
5086;DHT22;4715;51.660;7.082;2023-06-10T12:35:04;32.50;84.50
5086;DHT22;4715;51.660;7.082;2023-06-10T12:37:35;32.50;83.90
5086;DHT22;4715;51.660;7.082;2023-06-10T12:40:04;32.50;83.30
5086;DHT22;4715;51.660;7.082;2023-06-10T12:42:30;32.50;83.00
5086;DHT22;4715;51.660;7.082;2023-06-10T12:44:54;32.50;82.90
5086;DHT22;4715;51.660;7.082;2023-06-10T12:47:17;32.60;82.70
5086;DHT22;4715;51.660;7.082;2023-06-10T12:49:40;32.60;82.20
5086;DHT22;4715;51.660;7.082;2023-06-10T12:52:04;32.60;81.70
5086;DHT22;4715;51.660;7.082;2023-06-10T12:54:26;32.60;81.40
5086;DHT22;4715;51.660;7.082;2023-06-10T12:56:48;32.60;81.40
5086;DHT22;4715;51.660;7.082;2023-06-10T12:59:11;32.60;81.20
5086;DHT22;4715;51.660;7.082;2023-06-10T13:01:33;32.60;81.00
5086;DHT22;4715;51.660;7.082;2023-06-10T13:03:56;32.60;80.60
5086;DHT22;4715;51.660;7.082;2023-06-10T13:06:18;32.60;80.40
5086;DHT22;4715;51.660;7.082;2023-06-10T13:08:44;32.60;80.40
5086;DHT22;4715;51.660;7.082;2023-06-10T13:11:07;32.50;79.90
5086;DHT22;4715;51.660;7.082;2023-06-10T13:13:30;32.50;79.60
5086;DHT22;4715;51.660;7.082;2023-06-10T13:15:53;32.60;79.50
5086;DHT22;4715;51.660;7.082;2023-06-10T13:18:15;32.50;79.50
5086;DHT22;4715;51.660;7.082;2023-06-10T13:20:38;32.60;79.30
5086;DHT22;4715;51.660;7.082;2023-06-10T13:23:00;32.50;79.10
5086;DHT22;4715;51.660;7.082;2023-06-10T13:25:28;32.40;79.00
5086;DHT22;4715;51.660;7.082;2023-06-10T13:27:50;32.40;79.10
5086;DHT22;4715;51.660;7.082;2023-06-10T13:30:13;32.30;79.20
5086;DHT22;4715;51.660;7.082;2023-06-10T13:32:35;32.30;79.50
5086;DHT22;4715;51.660;7.082;2023-06-10T13:34:59;32.30;79.20
5086;DHT22;4715;51.660;7.082;2023-06-10T13:37:22;32.30;79.30
5086;DHT22;4715;51.660;7.082;2023-06-10T13:39:47;32.20;79.50
5086;DHT22;4715;51.660;7.082;2023-06-10T13:42:12;32.20;79.50
5086;DHT22;4715;51.660;7.082;2023-06-10T13:44:34;32.20;79.40
5086;DHT22;4715;51.660;7.082;2023-06-10T13:47:03;32.10;78.90
5086;DHT22;4715;51.660;7.082;2023-06-10T13:49:25;32.10;79.40
5086;DHT22;4715;51.660;7.082;2023-06-10T13:51:47;32.10;79.60
5086;DHT22;4715;51.660;7.082;2023-06-10T13:54:09;32.10;79.60
5086;DHT22;4715;51.660;7.082;2023-06-10T13:56:32;32.00;79.40
5086;DHT22;4715;51.660;7.082;2023-06-10T13:58:59;32.00;79.60
5086;DHT22;4715;51.660;7.082;2023-06-10T14:01:23;32.00;79.80
5086;DHT22;4715;51.660;7.082;2023-06-10T14:03:45;31.90;80.00
5086;DHT22;4715;51.660;7.082;2023-06-10T14:06:07;31.90;80.20
5086;DHT22;4715;51.660;7.082;2023-06-10T14:08:31;31.90;80.20
5086;DHT22;4715;51.660;7.082;2023-06-10T14:11:03;31.80;80.00
5086;DHT22;4715;51.660;7.082;2023-06-10T14:13:26;31.80;80.20
5086;DHT22;4715;51.660;7.082;2023-06-10T14:15:50;31.80;79.80
5086;DHT22;4715;51.660;7.082;2023-06-10T14:18:11;31.70;79.80
5086;DHT22;4715;51.660;7.082;2023-06-10T14:20:35;31.60;79.60
5086;DHT22;4715;51.660;7.082;2023-06-10T14:22:59;31.60;79.50
5086;DHT22;4715;51.660;7.082;2023-06-10T14:25:21;31.60;79.60
5086;DHT22;4715;51.660;7.082;2023-06-10T14:27:43;31.60;79.90
5086;DHT22;4715;51.660;7.082;2023-06-10T14:30:07;31.60;80.20
5086;DHT22;4715;51.660;7.082;2023-06-10T14:32:31;31.60;79.80
5086;DHT22;4715;51.660;7.082;2023-06-10T14:34:56;31.60;79.70
5086;DHT22;4715;51.660;7.082;2023-06-10T14:37:17;31.60;79.50
5086;DHT22;4715;51.660;7.082;2023-06-10T14:39:39;31.60;79.40
5086;DHT22;4715;51.660;7.082;2023-06-10T14:42:01;31.60;79.40
5086;DHT22;4715;51.660;7.082;2023-06-10T14:44:23;31.70;79.70
5086;DHT22;4715;51.660;7.082;2023-06-10T14:46:45;31.70;79.80
5086;DHT22;4715;51.660;7.082;2023-06-10T14:49:08;31.70;79.30
5086;DHT22;4715;51.660;7.082;2023-06-10T14:51:31;31.60;79.10
5086;DHT22;4715;51.660;7.082;2023-06-10T14:53:55;31.60;79.50
5086;DHT22;4715;51.660;7.082;2023-06-10T14:56:18;31.60;79.50
5086;DHT22;4715;51.660;7.082;2023-06-10T14:58:40;31.50;79.30
5086;DHT22;4715;51.660;7.082;2023-06-10T15:01:02;31.50;79.50
5086;DHT22;4715;51.660;7.082;2023-06-10T15:03:24;31.50;79.60
5086;DHT22;4715;51.660;7.082;2023-06-10T15:05:47;31.50;79.60
5086;DHT22;4715;51.660;7.082;2023-06-10T15:08:09;31.40;79.90
5086;DHT22;4715;51.660;7.082;2023-06-10T15:10:32;31.40;79.60
5086;DHT22;4715;51.660;7.082;2023-06-10T15:12:55;31.40;79.70
5086;DHT22;4715;51.660;7.082;2023-06-10T15:15:19;31.40;79.60
5086;DHT22;4715;51.660;7.082;2023-06-10T15:17:41;31.40;79.70
5086;DHT22;4715;51.660;7.082;2023-06-10T15:20:04;31.40;79.90
5086;DHT22;4715;51.660;7.082;2023-06-10T15:22:27;31.40;79.90
5086;DHT22;4715;51.660;7.082;2023-06-10T15:24:49;31.40;79.90
5086;DHT22;4715;51.660;7.082;2023-06-10T15:27:11;31.40;80.00
5086;DHT22;4715;51.660;7.082;2023-06-10T15:29:33;31.40;80.30
5086;DHT22;4715;51.660;7.082;2023-06-10T15:31:56;31.40;80.20
5086;DHT22;4715;51.660;7.082;2023-06-10T15:34:20;31.40;80.10
5086;DHT22;4715;51.660;7.082;2023-06-10T15:36:43;31.40;80.10
5086;DHT22;4715;51.660;7.082;2023-06-10T15:39:06;31.40;80.20
5086;DHT22;4715;51.660;7.082;2023-06-10T15:41:28;31.40;80.10